sensor_id;sensor_type;location;lat;lon;timestamp;temperature;humidity
43920;DHT22;29578;51.946;5.874;2022-08-16T00:02:05;21.90;65.10
43920;DHT22;29578;51.946;5.874;2022-08-16T00:04:31;21.80;65.20
43920;DHT22;29578;51.946;5.874;2022-08-16T00:06:57;21.80;65.20
43920;DHT22;29578;51.946;5.874;2022-08-16T00:09:24;21.80;65.30
43920;DHT22;29578;51.946;5.874;2022-08-16T00:11:50;21.60;65.30
43920;DHT22;29578;51.946;5.874;2022-08-16T00:14:21;21.60;65.50
43920;DHT22;29578;51.946;5.874;2022-08-16T00:16:48;21.60;65.60
43920;DHT22;29578;51.946;5.874;2022-08-16T00:19:16;21.50;65.60
43920;DHT22;29578;51.946;5.874;2022-08-16T00:21:43;21.50;65.70
43920;DHT22;29578;51.946;5.874;2022-08-16T00:24:09;21.50;65.80
43920;DHT22;29578;51.946;5.874;2022-08-16T00:26:35;21.50;65.90
43920;DHT22;29578;51.946;5.874;2022-08-16T00:29:01;21.40;65.90
43920;DHT22;29578;51.946;5.874;2022-08-16T00:31:30;21.50;66.00
43920;DHT22;29578;51.946;5.874;2022-08-16T00:33:56;21.40;66.00
43920;DHT22;29578;51.946;5.874;2022-08-16T00:36:22;21.40;66.10
43920;DHT22;29578;51.946;5.874;2022-08-16T00:38:47;21.40;66.20
43920;DHT22;29578;51.946;5.874;2022-08-16T00:41:13;21.30;66.20
43920;DHT22;29578;51.946;5.874;2022-08-16T00:43:39;21.30;66.30
43920;DHT22;29578;51.946;5.874;2022-08-16T00:46:19;21.30;66.40
43920;DHT22;29578;51.946;5.874;2022-08-16T00:48:46;21.20;66.50
43920;DHT22;29578;51.946;5.874;2022-08-16T00:51:14;21.20;66.50
43920;DHT22;29578;51.946;5.874;2022-08-16T00:53:40;21.20;66.50
43920;DHT22;29578;51.946;5.874;2022-08-16T00:56:09;21.10;66.50
43920;DHT22;29578;51.946;5.874;2022-08-16T00:58:40;21.00;66.60
43920;DHT22;29578;51.946;5.874;2022-08-16T01:01:08;21.00;66.80
43920;DHT22;29578;51.946;5.874;2022-08-16T01:03:35;21.00;66.80
43920;DHT22;29578;51.946;5.874;2022-08-16T01:06:03;21.00;67.00
43920;DHT22;29578;51.946;5.874;2022-08-16T01:08:29;20.90;67.00
43920;DHT22;29578;51.946;5.874;2022-08-16T01:10:55;20.90;67.10
43920;DHT22;29578;51.946;5.874;2022-08-16T01:13:24;20.80;67.10
43920;DHT22;29578;51.946;5.874;2022-08-16T01:16:02;20.80;67.20
43920;DHT22;29578;51.946;5.874;2022-08-16T01:18:34;20.80;67.40
43920;DHT22;29578;51.946;5.874;2022-08-16T01:21:15;20.80;67.40
43920;DHT22;29578;51.946;5.874;2022-08-16T01:24:18;20.70;67.40
43920;DHT22;29578;51.946;5.874;2022-08-16T01:26:46;20.70;67.60
43920;DHT22;29578;51.946;5.874;2022-08-16T01:29:18;20.60;67.50
43920;DHT22;29578;51.946;5.874;2022-08-16T01:31:47;20.70;67.70
43920;DHT22;29578;51.946;5.874;2022-08-16T01:34:14;20.60;67.70
43920;DHT22;29578;51.946;5.874;2022-08-16T01:36:40;20.50;67.70
43920;DHT22;29578;51.946;5.874;2022-08-16T01:39:10;20.50;67.80
43920;DHT22;29578;51.946;5.874;2022-08-16T01:41:37;20.50;67.90
43920;DHT22;29578;51.946;5.874;2022-08-16T01:44:03;20.50;68.00
43920;DHT22;29578;51.946;5.874;2022-08-16T01:46:36;20.40;67.90
43920;DHT22;29578;51.946;5.874;2022-08-16T01:49:09;20.40;68.10
43920;DHT22;29578;51.946;5.874;2022-08-16T01:51:36;20.40;68.10
43920;DHT22;29578;51.946;5.874;2022-08-16T01:54:02;20.40;68.10
43920;DHT22;29578;51.946;5.874;2022-08-16T01:56:29;20.30;68.10
43920;DHT22;29578;51.946;5.874;2022-08-16T01:58:57;20.30;68.20
43920;DHT22;29578;51.946;5.874;2022-08-16T02:01:23;20.30;68.30
43920;DHT22;29578;51.946;5.874;2022-08-16T02:03:50;20.30;68.40
43920;DHT22;29578;51.946;5.874;2022-08-16T02:06:17;20.20;68.40
43920;DHT22;29578;51.946;5.874;2022-08-16T02:08:42;20.20;68.50
43920;DHT22;29578;51.946;5.874;2022-08-16T02:11:08;20.20;68.60
43920;DHT22;29578;51.946;5.874;2022-08-16T02:13:36;20.10;68.60
43920;DHT22;29578;51.946;5.874;2022-08-16T02:16:02;20.10;68.70
43920;DHT22;29578;51.946;5.874;2022-08-16T02:18:29;20.10;68.80
43920;DHT22;29578;51.946;5.874;2022-08-16T02:20:55;20.10;68.90
43920;DHT22;29578;51.946;5.874;2022-08-16T02:23:21;20.10;68.90
43920;DHT22;29578;51.946;5.874;2022-08-16T02:25:47;20.10;69.00
43920;DHT22;29578;51.946;5.874;2022-08-16T02:28:21;20.00;69.00
43920;DHT22;29578;51.946;5.874;2022-08-16T02:30:47;20.00;69.10
43920;DHT22;29578;51.946;5.874;2022-08-16T02:33:13;20.00;69.10
43920;DHT22;29578;51.946;5.874;2022-08-16T02:35:39;20.00;69.30
43920;DHT22;29578;51.946;5.874;2022-08-16T02:38:05;19.90;69.20
43920;DHT22;29578;51.946;5.874;2022-08-16T02:40:31;19.90;69.30
43920;DHT22;29578;51.946;5.874;2022-08-16T02:42:57;19.90;69.40
43920;DHT22;29578;51.946;5.874;2022-08-16T02:45:25;19.80;69.40
43920;DHT22;29578;51.946;5.874;2022-08-16T02:47:52;19.80;69.50
43920;DHT22;29578;51.946;5.874;2022-08-16T02:50:18;19.70;69.50
43920;DHT22;29578;51.946;5.874;2022-08-16T02:52:44;19.80;69.70
43920;DHT22;29578;51.946;5.874;2022-08-16T02:55:10;19.70;69.80
43920;DHT22;29578;51.946;5.874;2022-08-16T02:57:37;19.70;69.90
43920;DHT22;29578;51.946;5.874;2022-08-16T03:00:05;19.60;70.10
43920;DHT22;29578;51.946;5.874;2022-08-16T03:02:34;19.60;70.10
43920;DHT22;29578;51.946;5.874;2022-08-16T03:05:01;19.60;70.20
43920;DHT22;29578;51.946;5.874;2022-08-16T03:07:27;19.60;70.20
43920;DHT22;29578;51.946;5.874;2022-08-16T03:09:52;19.50;70.30
43920;DHT22;29578;51.946;5.874;2022-08-16T03:12:18;19.50;70.30
43920;DHT22;29578;51.946;5.874;2022-08-16T03:14:44;19.50;70.40
43920;DHT22;29578;51.946;5.874;2022-08-16T03:17:11;19.50;70.60
43920;DHT22;29578;51.946;5.874;2022-08-16T03:19:36;19.40;70.60
43920;DHT22;29578;51.946;5.874;2022-08-16T03:22:03;19.40;70.70
43920;DHT22;29578;51.946;5.874;2022-08-16T03:24:28;19.40;70.70
43920;DHT22;29578;51.946;5.874;2022-08-16T03:26:58;19.40;70.80
43920;DHT22;29578;51.946;5.874;2022-08-16T03:29:27;19.30;70.80
43920;DHT22;29578;51.946;5.874;2022-08-16T03:31:53;19.30;70.90
43920;DHT22;29578;51.946;5.874;2022-08-16T03:34:20;19.30;70.90
43920;DHT22;29578;51.946;5.874;2022-08-16T03:36:45;19.30;71.00
43920;DHT22;29578;51.946;5.874;2022-08-16T03:39:12;19.30;71.00
43920;DHT22;29578;51.946;5.874;2022-08-16T03:41:37;19.30;71.10
43920;DHT22;29578;51.946;5.874;2022-08-16T03:44:05;19.20;71.10
43920;DHT22;29578;51.946;5.874;2022-08-16T03:46:32;19.20;71.20
43920;DHT22;29578;51.946;5.874;2022-08-16T03:48:58;19.20;71.30
43920;DHT22;29578;51.946;5.874;2022-08-16T03:51:24;19.20;71.40
43920;DHT22;29578;51.946;5.874;2022-08-16T03:53:50;19.10;71.40
43920;DHT22;29578;51.946;5.874;2022-08-16T03:56:16;19.10;71.50
43920;DHT22;29578;51.946;5.874;2022-08-16T03:58:42;19.10;71.60
43920;DHT22;29578;51.946;5.874;2022-08-16T04:01:08;19.00;71.60
43920;DHT22;29578;51.946;5.874;2022-08-16T04:03:34;19.00;71.60
43920;DHT22;29578;51.946;5.874;2022-08-16T04:06:00;19.00;71.70
43920;DHT22;29578;51.946;5.874;2022-08-16T04:08:26;19.00;71.80
43920;DHT22;29578;51.946;5.874;2022-08-16T04:10:54;19.00;71.80
43920;DHT22;29578;51.946;5.874;2022-08-16T04:13:20;19.00;71.90
43920;DHT22;29578;51.946;5.874;2022-08-16T04:15:46;18.90;71.90
43920;DHT22;29578;51.946;5.874;2022-08-16T04:18:12;18.90;72.00
43920;DHT22;29578;51.946;5.874;2022-08-16T04:20:38;18.90;72.00
43920;DHT22;29578;51.946;5.874;2022-08-16T04:23:05;18.90;72.10
43920;DHT22;29578;51.946;5.874;2022-08-16T04:25:33;18.90;72.10
43920;DHT22;29578;51.946;5.874;2022-08-16T04:28:00;18.90;72.20
43920;DHT22;29578;51.946;5.874;2022-08-16T04:30:26;18.80;72.20
43920;DHT22;29578;51.946;5.874;2022-08-16T04:32:53;18.80;72.30
43920;DHT22;29578;51.946;5.874;2022-08-16T04:35:20;18.80;72.40
43920;DHT22;29578;51.946;5.874;2022-08-16T04:37:47;18.70;72.40
43920;DHT22;29578;51.946;5.874;2022-08-16T04:40:14;18.70;72.50
43920;DHT22;29578;51.946;5.874;2022-08-16T04:42:40;18.70;72.60
43920;DHT22;29578;51.946;5.874;2022-08-16T04:45:09;18.70;72.60
43920;DHT22;29578;51.946;5.874;2022-08-16T04:47:35;18.70;72.70
43920;DHT22;29578;51.946;5.874;2022-08-16T04:50:07;18.70;72.70
43920;DHT22;29578;51.946;5.874;2022-08-16T04:52:34;18.70;72.80
43920;DHT22;29578;51.946;5.874;2022-08-16T04:55:03;18.70;72.70
43920;DHT22;29578;51.946;5.874;2022-08-16T04:57:30;18.80;72.70
43920;DHT22;29578;51.946;5.874;2022-08-16T04:59:56;18.80;72.70
43920;DHT22;29578;51.946;5.874;2022-08-16T05:02:21;18.80;72.70
43920;DHT22;29578;51.946;5.874;2022-08-16T05:04:47;18.80;72.60
43920;DHT22;29578;51.946;5.874;2022-08-16T05:07:13;18.80;72.60
43920;DHT22;29578;51.946;5.874;2022-08-16T05:09:38;18.80;72.60
43920;DHT22;29578;51.946;5.874;2022-08-16T05:12:04;18.90;72.70
43920;DHT22;29578;51.946;5.874;2022-08-16T05:14:30;19.00;72.60
43920;DHT22;29578;51.946;5.874;2022-08-16T05:16:56;19.00;72.60
43920;DHT22;29578;51.946;5.874;2022-08-16T05:19:21;19.00;72.50
43920;DHT22;29578;51.946;5.874;2022-08-16T05:21:49;19.00;73.20
43920;DHT22;29578;51.946;5.874;2022-08-16T05:24:15;19.10;72.50
43920;DHT22;29578;51.946;5.874;2022-08-16T05:26:41;19.10;72.40
43920;DHT22;29578;51.946;5.874;2022-08-16T05:29:07;19.20;72.50
43920;DHT22;29578;51.946;5.874;2022-08-16T05:31:33;19.20;72.30
43920;DHT22;29578;51.946;5.874;2022-08-16T05:34:01;19.20;72.30
43920;DHT22;29578;51.946;5.874;2022-08-16T05:36:27;19.20;72.30
43920;DHT22;29578;51.946;5.874;2022-08-16T05:38:53;19.30;72.40
43920;DHT22;29578;51.946;5.874;2022-08-16T05:41:19;19.30;72.40
43920;DHT22;29578;51.946;5.874;2022-08-16T05:43:45;19.30;72.40
43920;DHT22;29578;51.946;5.874;2022-08-16T05:46:11;19.30;72.40
43920;DHT22;29578;51.946;5.874;2022-08-16T05:48:37;19.30;72.40
43920;DHT22;29578;51.946;5.874;2022-08-16T05:51:03;19.40;72.90
43920;DHT22;29578;51.946;5.874;2022-08-16T05:53:29;19.50;72.20
43920;DHT22;29578;51.946;5.874;2022-08-16T05:55:55;19.50;72.20
43920;DHT22;29578;51.946;5.874;2022-08-16T05:58:20;19.50;72.20
43920;DHT22;29578;51.946;5.874;2022-08-16T06:00:46;19.60;72.20
43920;DHT22;29578;51.946;5.874;2022-08-16T06:03:12;19.60;72.10
43920;DHT22;29578;51.946;5.874;2022-08-16T06:05:37;19.70;72.10
43920;DHT22;29578;51.946;5.874;2022-08-16T06:08:03;19.70;72.00
43920;DHT22;29578;51.946;5.874;2022-08-16T06:10:29;19.70;72.10
43920;DHT22;29578;51.946;5.874;2022-08-16T06:12:55;19.80;72.20
43920;DHT22;29578;51.946;5.874;2022-08-16T06:15:21;19.80;72.10
43920;DHT22;29578;51.946;5.874;2022-08-16T06:17:47;19.80;72.10
43920;DHT22;29578;51.946;5.874;2022-08-16T06:20:18;20.00;72.10
43920;DHT22;29578;51.946;5.874;2022-08-16T06:22:44;19.90;71.90
43920;DHT22;29578;51.946;5.874;2022-08-16T06:25:12;20.00;71.90
43920;DHT22;29578;51.946;5.874;2022-08-16T06:27:38;20.10;71.80
43920;DHT22;29578;51.946;5.874;2022-08-16T06:30:07;20.10;71.70
43920;DHT22;29578;51.946;5.874;2022-08-16T06:32:33;20.20;71.60
43920;DHT22;29578;51.946;5.874;2022-08-16T06:34:59;20.20;71.50
43920;DHT22;29578;51.946;5.874;2022-08-16T06:37:25;20.30;71.50
43920;DHT22;29578;51.946;5.874;2022-08-16T06:39:50;20.30;71.40
43920;DHT22;29578;51.946;5.874;2022-08-16T06:42:17;20.50;71.40
43920;DHT22;29578;51.946;5.874;2022-08-16T06:44:43;20.40;71.30
43920;DHT22;29578;51.946;5.874;2022-08-16T06:47:09;20.50;71.20
43920;DHT22;29578;51.946;5.874;2022-08-16T06:49:35;20.50;71.10
43920;DHT22;29578;51.946;5.874;2022-08-16T06:52:00;20.60;71.00
43920;DHT22;29578;51.946;5.874;2022-08-16T06:54:26;20.60;70.90
43920;DHT22;29578;51.946;5.874;2022-08-16T06:56:52;20.70;70.90
43920;DHT22;29578;51.946;5.874;2022-08-16T06:59:18;20.70;70.80
43920;DHT22;29578;51.946;5.874;2022-08-16T07:01:43;20.80;70.80
43920;DHT22;29578;51.946;5.874;2022-08-16T07:04:09;20.80;70.70
43920;DHT22;29578;51.946;5.874;2022-08-16T07:06:35;20.90;70.60
43920;DHT22;29578;51.946;5.874;2022-08-16T07:09:01;20.90;70.50
43920;DHT22;29578;51.946;5.874;2022-08-16T07:11:27;21.00;70.50
43920;DHT22;29578;51.946;5.874;2022-08-16T07:13:52;21.00;70.40
43920;DHT22;29578;51.946;5.874;2022-08-16T07:16:19;21.10;70.30
43920;DHT22;29578;51.946;5.874;2022-08-16T07:18:46;21.10;70.30
43920;DHT22;29578;51.946;5.874;2022-08-16T07:21:12;21.20;70.20
43920;DHT22;29578;51.946;5.874;2022-08-16T07:23:40;21.30;70.10
43920;DHT22;29578;51.946;5.874;2022-08-16T07:26:09;21.30;70.00
43920;DHT22;29578;51.946;5.874;2022-08-16T07:28:35;21.30;69.90
43920;DHT22;29578;51.946;5.874;2022-08-16T07:31:02;21.40;69.70
43920;DHT22;29578;51.946;5.874;2022-08-16T07:33:31;21.50;69.70
43920;DHT22;29578;51.946;5.874;2022-08-16T07:35:59;21.60;69.50
43920;DHT22;29578;51.946;5.874;2022-08-16T07:38:24;21.60;69.30
43920;DHT22;29578;51.946;5.874;2022-08-16T07:40:53;21.70;69.20
43920;DHT22;29578;51.946;5.874;2022-08-16T07:43:20;21.80;69.00
43920;DHT22;29578;51.946;5.874;2022-08-16T07:45:46;21.90;68.80
43920;DHT22;29578;51.946;5.874;2022-08-16T07:48:12;21.90;68.60
43920;DHT22;29578;51.946;5.874;2022-08-16T07:50:39;21.90;68.50
43920;DHT22;29578;51.946;5.874;2022-08-16T07:53:06;22.00;68.30
43920;DHT22;29578;51.946;5.874;2022-08-16T07:55:32;22.20;68.20
43920;DHT22;29578;51.946;5.874;2022-08-16T07:57:57;22.20;67.90
43920;DHT22;29578;51.946;5.874;2022-08-16T08:00:23;22.40;67.80
43920;DHT22;29578;51.946;5.874;2022-08-16T08:02:49;22.50;67.50
43920;DHT22;29578;51.946;5.874;2022-08-16T08:05:15;22.60;67.20
43920;DHT22;29578;51.946;5.874;2022-08-16T08:07:41;22.80;66.90
43920;DHT22;29578;51.946;5.874;2022-08-16T08:10:07;23.00;66.70
43920;DHT22;29578;51.946;5.874;2022-08-16T08:12:34;23.10;66.30
43920;DHT22;29578;51.946;5.874;2022-08-16T08:15:00;23.20;66.00
43920;DHT22;29578;51.946;5.874;2022-08-16T08:17:26;23.40;65.80
43920;DHT22;29578;51.946;5.874;2022-08-16T08:19:54;23.50;65.50
43920;DHT22;29578;51.946;5.874;2022-08-16T08:22:20;23.60;65.10
43920;DHT22;29578;51.946;5.874;2022-08-16T08:24:47;23.80;64.90
43920;DHT22;29578;51.946;5.874;2022-08-16T08:27:13;24.00;64.60
43920;DHT22;29578;51.946;5.874;2022-08-16T08:29:40;24.00;64.20
43920;DHT22;29578;51.946;5.874;2022-08-16T08:32:07;24.10;64.20
43920;DHT22;29578;51.946;5.874;2022-08-16T08:34:33;24.20;63.90
43920;DHT22;29578;51.946;5.874;2022-08-16T08:36:59;24.40;63.70
43920;DHT22;29578;51.946;5.874;2022-08-16T08:39:25;24.40;63.60
43920;DHT22;29578;51.946;5.874;2022-08-16T08:41:51;24.60;63.50
43920;DHT22;29578;51.946;5.874;2022-08-16T08:44:18;24.70;63.20
43920;DHT22;29578;51.946;5.874;2022-08-16T08:46:43;24.90;63.10
43920;DHT22;29578;51.946;5.874;2022-08-16T08:49:09;25.10;62.90
43920;DHT22;29578;51.946;5.874;2022-08-16T08:51:35;25.20;62.80
43920;DHT22;29578;51.946;5.874;2022-08-16T08:54:04;25.30;62.70
43920;DHT22;29578;51.946;5.874;2022-08-16T08:56:30;25.40;62.50
43920;DHT22;29578;51.946;5.874;2022-08-16T08:58:57;25.40;62.40
43920;DHT22;29578;51.946;5.874;2022-08-16T09:01:29;25.50;62.40
43920;DHT22;29578;51.946;5.874;2022-08-16T09:03:55;25.60;62.50
43920;DHT22;29578;51.946;5.874;2022-08-16T09:06:20;25.80;62.40
43920;DHT22;29578;51.946;5.874;2022-08-16T09:08:46;25.90;62.20
43920;DHT22;29578;51.946;5.874;2022-08-16T09:11:12;25.90;62.00
43920;DHT22;29578;51.946;5.874;2022-08-16T09:13:38;26.00;62.00
43920;DHT22;29578;51.946;5.874;2022-08-16T09:16:05;26.10;62.00
43920;DHT22;29578;51.946;5.874;2022-08-16T09:18:31;26.20;61.90
43920;DHT22;29578;51.946;5.874;2022-08-16T09:20:57;26.40;61.70
43920;DHT22;29578;51.946;5.874;2022-08-16T09:23:24;26.40;61.50
43920;DHT22;29578;51.946;5.874;2022-08-16T09:25:50;26.40;61.50
43920;DHT22;29578;51.946;5.874;2022-08-16T09:28:17;26.50;61.60
43920;DHT22;29578;51.946;5.874;2022-08-16T09:30:43;26.50;61.50
43920;DHT22;29578;51.946;5.874;2022-08-16T09:33:10;26.60;61.50
43920;DHT22;29578;51.946;5.874;2022-08-16T09:35:36;26.60;61.30
43920;DHT22;29578;51.946;5.874;2022-08-16T09:38:03;26.60;61.20
43920;DHT22;29578;51.946;5.874;2022-08-16T09:40:29;26.70;61.00
43920;DHT22;29578;51.946;5.874;2022-08-16T09:42:55;27.00;61.10
43920;DHT22;29578;51.946;5.874;2022-08-16T09:45:23;27.00;60.80
43920;DHT22;29578;51.946;5.874;2022-08-16T09:47:50;27.10;60.60
43920;DHT22;29578;51.946;5.874;2022-08-16T09:50:20;27.10;60.50
43920;DHT22;29578;51.946;5.874;2022-08-16T09:52:46;27.20;60.40
43920;DHT22;29578;51.946;5.874;2022-08-16T09:55:12;27.20;60.60
43920;DHT22;29578;51.946;5.874;2022-08-16T09:57:39;27.20;60.50
43920;DHT22;29578;51.946;5.874;2022-08-16T10:00:08;27.30;60.30
43920;DHT22;29578;51.946;5.874;2022-08-16T10:02:35;27.40;60.20
43920;DHT22;29578;51.946;5.874;2022-08-16T10:05:01;27.40;60.10
43920;DHT22;29578;51.946;5.874;2022-08-16T10:07:29;27.50;60.00
43920;DHT22;29578;51.946;5.874;2022-08-16T10:09:55;27.60;59.90
43920;DHT22;29578;51.946;5.874;2022-08-16T10:12:23;27.70;59.70
43920;DHT22;29578;51.946;5.874;2022-08-16T10:15:05;27.90;59.50
43920;DHT22;29578;51.946;5.874;2022-08-16T10:17:34;28.00;59.40
43920;DHT22;29578;51.946;5.874;2022-08-16T10:20:00;28.00;59.10
43920;DHT22;29578;51.946;5.874;2022-08-16T10:22:25;28.10;59.00
43920;DHT22;29578;51.946;5.874;2022-08-16T10:24:52;28.20;59.60
43920;DHT22;29578;51.946;5.874;2022-08-16T10:27:18;28.10;58.80
43920;DHT22;29578;51.946;5.874;2022-08-16T10:29:45;28.20;58.70
43920;DHT22;29578;51.946;5.874;2022-08-16T10:32:12;28.20;58.60
43920;DHT22;29578;51.946;5.874;2022-08-16T10:34:38;28.30;58.60
43920;DHT22;29578;51.946;5.874;2022-08-16T10:37:04;28.30;58.50
43920;DHT22;29578;51.946;5.874;2022-08-16T10:39:30;28.40;58.40
43920;DHT22;29578;51.946;5.874;2022-08-16T10:41:56;28.40;58.20
43920;DHT22;29578;51.946;5.874;2022-08-16T10:44:21;28.40;58.00
43920;DHT22;29578;51.946;5.874;2022-08-16T10:46:47;28.40;57.90
43920;DHT22;29578;51.946;5.874;2022-08-16T10:49:13;28.50;57.80
43920;DHT22;29578;51.946;5.874;2022-08-16T10:51:40;28.50;57.70
43920;DHT22;29578;51.946;5.874;2022-08-16T10:54:05;28.60;57.70
43920;DHT22;29578;51.946;5.874;2022-08-16T10:56:32;28.50;57.60
43920;DHT22;29578;51.946;5.874;2022-08-16T10:58:58;28.60;57.60
43920;DHT22;29578;51.946;5.874;2022-08-16T11:01:24;28.60;57.50
43920;DHT22;29578;51.946;5.874;2022-08-16T11:03:52;28.60;57.50
43920;DHT22;29578;51.946;5.874;2022-08-16T11:06:18;28.70;57.40
43920;DHT22;29578;51.946;5.874;2022-08-16T11:08:44;28.70;57.20
43920;DHT22;29578;51.946;5.874;2022-08-16T11:11:10;28.90;57.10
43920;DHT22;29578;51.946;5.874;2022-08-16T11:13:37;28.90;56.70
43920;DHT22;29578;51.946;5.874;2022-08-16T11:16:04;29.00;56.60
43920;DHT22;29578;51.946;5.874;2022-08-16T11:18:30;29.00;56.50
43920;DHT22;29578;51.946;5.874;2022-08-16T11:20:56;29.10;56.40
43920;DHT22;29578;51.946;5.874;2022-08-16T11:23:24;29.00;56.30
43920;DHT22;29578;51.946;5.874;2022-08-16T11:25:51;28.90;56.40
43920;DHT22;29578;51.946;5.874;2022-08-16T11:28:17;28.90;56.40
43920;DHT22;29578;51.946;5.874;2022-08-16T11:30:44;28.80;56.40
43920;DHT22;29578;51.946;5.874;2022-08-16T11:33:10;28.80;56.40
43920;DHT22;29578;51.946;5.874;2022-08-16T11:35:37;28.80;56.30
43920;DHT22;29578;51.946;5.874;2022-08-16T11:38:08;29.00;56.10
43920;DHT22;29578;51.946;5.874;2022-08-16T11:40:46;29.00;55.80
43920;DHT22;29578;51.946;5.874;2022-08-16T11:43:16;29.10;55.60
43920;DHT22;29578;51.946;5.874;2022-08-16T11:45:45;29.30;55.40
43920;DHT22;29578;51.946;5.874;2022-08-16T11:48:11;29.40;55.30
43920;DHT22;29578;51.946;5.874;2022-08-16T11:50:39;29.60;54.90
43920;DHT22;29578;51.946;5.874;2022-08-16T11:53:06;29.60;54.70
43920;DHT22;29578;51.946;5.874;2022-08-16T11:55:33;29.60;54.60
43920;DHT22;29578;51.946;5.874;2022-08-16T11:58:00;29.60;54.70
43920;DHT22;29578;51.946;5.874;2022-08-16T12:00:28;29.50;54.70
43920;DHT22;29578;51.946;5.874;2022-08-16T12:02:54;29.50;54.60
43920;DHT22;29578;51.946;5.874;2022-08-16T12:05:20;29.50;54.70
43920;DHT22;29578;51.946;5.874;2022-08-16T12:07:46;29.50;54.80
43920;DHT22;29578;51.946;5.874;2022-08-16T12:10:15;29.40;54.70
43920;DHT22;29578;51.946;5.874;2022-08-16T12:12:42;29.40;54.80
43920;DHT22;29578;51.946;5.874;2022-08-16T12:15:09;29.30;54.80
43920;DHT22;29578;51.946;5.874;2022-08-16T12:17:36;29.30;54.80
43920;DHT22;29578;51.946;5.874;2022-08-16T12:20:09;29.30;55.00
43920;DHT22;29578;51.946;5.874;2022-08-16T12:22:36;29.10;54.80
43920;DHT22;29578;51.946;5.874;2022-08-16T12:25:06;29.10;55.00
43920;DHT22;29578;51.946;5.874;2022-08-16T12:27:32;29.00;55.10
43920;DHT22;29578;51.946;5.874;2022-08-16T12:29:58;28.90;55.30
43920;DHT22;29578;51.946;5.874;2022-08-16T12:32:24;28.80;55.50
43920;DHT22;29578;51.946;5.874;2022-08-16T12:34:49;28.70;55.50
43920;DHT22;29578;51.946;5.874;2022-08-16T12:37:16;28.80;55.60
43920;DHT22;29578;51.946;5.874;2022-08-16T12:39:42;28.70;55.50
43920;DHT22;29578;51.946;5.874;2022-08-16T12:42:08;28.60;55.30
43920;DHT22;29578;51.946;5.874;2022-08-16T12:44:35;28.60;55.40
43920;DHT22;29578;51.946;5.874;2022-08-16T12:47:01;28.60;55.40
43920;DHT22;29578;51.946;5.874;2022-08-16T12:49:39;28.60;55.40
43920;DHT22;29578;51.946;5.874;2022-08-16T12:52:04;28.60;55.40
43920;DHT22;29578;51.946;5.874;2022-08-16T12:54:30;28.60;55.50
43920;DHT22;29578;51.946;5.874;2022-08-16T12:56:56;28.60;55.40
43920;DHT22;29578;51.946;5.874;2022-08-16T12:59:22;28.60;55.30
43920;DHT22;29578;51.946;5.874;2022-08-16T13:01:48;28.70;55.20
43920;DHT22;29578;51.946;5.874;2022-08-16T13:04:14;28.80;55.00
43920;DHT22;29578;51.946;5.874;2022-08-16T13:06:40;28.90;54.80
43920;DHT22;29578;51.946;5.874;2022-08-16T13:09:07;29.10;54.50
43920;DHT22;29578;51.946;5.874;2022-08-16T13:11:49;29.20;54.20
43920;DHT22;29578;51.946;5.874;2022-08-16T13:14:26;29.30;54.20
43920;DHT22;29578;51.946;5.874;2022-08-16T13:16:53;29.40;54.00
43920;DHT22;29578;51.946;5.874;2022-08-16T13:19:18;29.40;53.90
43920;DHT22;29578;51.946;5.874;2022-08-16T13:21:44;29.40;54.00
43920;DHT22;29578;51.946;5.874;2022-08-16T13:24:11;29.40;53.90
43920;DHT22;29578;51.946;5.874;2022-08-16T13:26:37;29.40;53.90
43920;DHT22;29578;51.946;5.874;2022-08-16T13:29:02;29.30;54.10
43920;DHT22;29578;51.946;5.874;2022-08-16T13:31:28;29.30;54.10
43920;DHT22;29578;51.946;5.874;2022-08-16T13:33:54;29.40;54.10
43920;DHT22;29578;51.946;5.874;2022-08-16T13:36:21;29.40;54.10
43920;DHT22;29578;51.946;5.874;2022-08-16T13:38:47;29.40;54.10
43920;DHT22;29578;51.946;5.874;2022-08-16T13:41:12;29.50;54.00
43920;DHT22;29578;51.946;5.874;2022-08-16T13:43:39;29.40;53.90
43920;DHT22;29578;51.946;5.874;2022-08-16T13:46:06;29.40;53.90
43920;DHT22;29578;51.946;5.874;2022-08-16T13:48:33;29.40;54.00
43920;DHT22;29578;51.946;5.874;2022-08-16T13:51:00;29.20;54.10
43920;DHT22;29578;51.946;5.874;2022-08-16T13:53:26;29.00;54.40
43920;DHT22;29578;51.946;5.874;2022-08-16T13:55:54;29.00;54.60
43920;DHT22;29578;51.946;5.874;2022-08-16T13:58:20;29.00;54.80
43920;DHT22;29578;51.946;5.874;2022-08-16T14:00:46;28.90;54.90
43920;DHT22;29578;51.946;5.874;2022-08-16T14:03:12;28.80;54.80
43920;DHT22;29578;51.946;5.874;2022-08-16T14:05:37;28.80;54.80
43920;DHT22;29578;51.946;5.874;2022-08-16T14:08:03;28.90;54.70
43920;DHT22;29578;51.946;5.874;2022-08-16T14:10:29;28.90;54.50
43920;DHT22;29578;51.946;5.874;2022-08-16T14:12:55;29.00;54.40
43920;DHT22;29578;51.946;5.874;2022-08-16T14:15:21;29.00;54.30
43920;DHT22;29578;51.946;5.874;2022-08-16T14:17:47;29.10;54.10
43920;DHT22;29578;51.946;5.874;2022-08-16T14:20:13;29.00;54.10
43920;DHT22;29578;51.946;5.874;2022-08-16T14:22:41;29.00;54.20
43920;DHT22;29578;51.946;5.874;2022-08-16T14:25:17;28.90;54.10
43920;DHT22;29578;51.946;5.874;2022-08-16T14:27:44;28.90;54.10
43920;DHT22;29578;51.946;5.874;2022-08-16T14:30:12;29.00;54.20
43920;DHT22;29578;51.946;5.874;2022-08-16T14:32:38;29.00;54.20
43920;DHT22;29578;51.946;5.874;2022-08-16T14:35:07;29.00;54.00
43920;DHT22;29578;51.946;5.874;2022-08-16T14:37:35;29.00;54.00
43920;DHT22;29578;51.946;5.874;2022-08-16T14:40:04;29.00;54.00
43920;DHT22;29578;51.946;5.874;2022-08-16T14:42:30;29.00;54.10
43920;DHT22;29578;51.946;5.874;2022-08-16T14:44:56;29.10;54.20
43920;DHT22;29578;51.946;5.874;2022-08-16T14:47:22;29.00;54.10
43920;DHT22;29578;51.946;5.874;2022-08-16T14:49:47;28.90;54.10
43920;DHT22;29578;51.946;5.874;2022-08-16T14:52:17;28.80;54.10
43920;DHT22;29578;51.946;5.874;2022-08-16T14:54:44;28.80;54.10
43920;DHT22;29578;51.946;5.874;2022-08-16T14:57:12;28.80;54.10
43920;DHT22;29578;51.946;5.874;2022-08-16T14:59:38;28.70;54.20
43920;DHT22;29578;51.946;5.874;2022-08-16T15:02:15;28.80;54.20
43920;DHT22;29578;51.946;5.874;2022-08-16T15:04:41;28.90;54.10
43920;DHT22;29578;51.946;5.874;2022-08-16T15:07:09;28.80;54.00
43920;DHT22;29578;51.946;5.874;2022-08-16T15:09:36;28.80;53.90
43920;DHT22;29578;51.946;5.874;2022-08-16T15:12:07;28.80;53.90
43920;DHT22;29578;51.946;5.874;2022-08-16T15:14:36;28.80;53.80
43920;DHT22;29578;51.946;5.874;2022-08-16T15:17:01;28.80;53.80
43920;DHT22;29578;51.946;5.874;2022-08-16T15:19:27;28.80;53.80
43920;DHT22;29578;51.946;5.874;2022-08-16T15:21:53;28.70;53.70
43920;DHT22;29578;51.946;5.874;2022-08-16T15:24:19;28.80;53.70
43920;DHT22;29578;51.946;5.874;2022-08-16T15:26:45;28.80;53.70
43920;DHT22;29578;51.946;5.874;2022-08-16T15:29:10;28.80;53.60